createdAt,value
2019-04-19T00:00:34.864Z,1021.83
2019-04-19T00:01:45.007Z,1021.82
2019-04-19T00:02:39.971Z,1021.79
2019-04-19T00:03:37.686Z,1021.83
2019-04-19T00:04:35.221Z,1021.80
2019-04-19T00:05:37.795Z,1021.82
2019-04-19T00:06:38.045Z,1021.83
2019-04-19T00:08:49.379Z,1021.84
2019-04-19T00:09:43.850Z,1021.88
2019-04-19T00:10:43.454Z,1021.84
2019-04-19T00:11:42.276Z,1021.81
2019-04-19T00:13:34.922Z,1021.85
2019-04-19T00:14:35.841Z,1021.86
2019-04-19T00:15:36.270Z,1021.83
2019-04-19T00:16:36.322Z,1021.85
2019-04-19T00:17:37.029Z,1021.83
2019-04-19T00:19:56.767Z,1021.82
2019-04-19T00:21:01.774Z,1021.85
2019-04-19T00:21:58.222Z,1021.81
2019-04-19T00:22:54.496Z,1021.83
2019-04-19T00:23:40.541Z,1021.82
2019-04-19T00:24:35.475Z,1021.86
2019-04-19T00:25:36.563Z,1021.84
2019-04-19T00:26:36.002Z,1021.82
2019-04-19T00:27:44.212Z,1021.81
2019-04-19T00:29:44.728Z,1021.85
2019-04-19T00:30:45.266Z,1021.84
2019-04-19T00:31:46.311Z,1021.85
2019-04-19T00:32:53.908Z,1021.85
2019-04-19T00:33:41.694Z,1021.83
2019-04-19T00:34:35.777Z,1021.82
2019-04-19T00:35:36.724Z,1021.83
2019-04-19T00:37:36.538Z,1021.87
2019-04-19T00:38:47.062Z,1021.83
2019-04-19T00:39:51.381Z,1021.84
2019-04-19T00:40:45.881Z,1021.86
2019-04-19T00:41:58.303Z,1021.88
2019-04-19T00:42:48.023Z,1021.85
2019-04-19T00:43:49.867Z,1021.88
2019-04-19T00:46:58.386Z,1021.81
2019-04-19T00:47:54.562Z,1021.80
2019-04-19T00:48:53.826Z,1021.80
2019-04-19T00:49:51.284Z,1021.81
2019-04-19T00:51:49.294Z,1021.81
2019-04-19T00:52:55.791Z,1021.82
2019-04-19T00:53:43.672Z,1021.84
2019-04-19T00:54:49.453Z,1021.80
2019-04-19T00:55:48.746Z,1021.82
2019-04-19T00:56:48.103Z,1021.83
2019-04-19T00:57:41.972Z,1021.80
2019-04-19T00:58:38.881Z,1021.78
2019-04-19T00:59:41.734Z,1021.80
2019-04-19T01:00:39.478Z,1021.80
2019-04-19T01:01:37.484Z,1021.81
2019-04-19T01:03:40.969Z,1021.81
2019-04-19T01:04:38.043Z,1021.82
2019-04-19T01:05:46.227Z,1021.79
2019-04-19T01:06:46.073Z,1021.82
2019-04-19T01:07:39.182Z,1021.84
2019-04-19T01:08:49.954Z,1021.84
2019-04-19T01:09:46.261Z,1021.83
2019-04-19T01:10:48.368Z,1021.85
2019-04-19T01:11:55.714Z,1021.82
2019-04-19T01:12:55.091Z,1021.82
2019-04-19T01:14:45.964Z,1021.81
2019-04-19T01:15:54.358Z,1021.84
2019-04-19T01:16:51.610Z,1021.83
2019-04-19T01:17:54.183Z,1021.81
2019-04-19T01:18:48.394Z,1021.82
2019-04-19T01:19:39.866Z,1021.87
2019-04-19T01:20:37.411Z,1021.85
2019-04-19T01:21:38.453Z,1021.88
2019-04-19T01:23:42.282Z,1021.88
2019-04-19T01:24:42.913Z,1021.88
2019-04-19T01:25:37.339Z,1021.88
2019-04-19T01:26:45.597Z,1021.91
2019-04-19T01:27:38.843Z,1021.90
2019-04-19T01:28:38.821Z,1021.90
2019-04-19T01:29:43.666Z,1021.91
2019-04-19T01:31:37.713Z,1021.94
2019-04-19T01:33:41.112Z,1021.92
2019-04-19T01:34:37.639Z,1021.93
2019-04-19T01:35:41.016Z,1021.93
2019-04-19T01:36:41.946Z,1021.92
2019-04-19T01:37:38.988Z,1021.92
2019-04-19T01:38:44.763Z,1021.90
2019-04-19T01:39:56.729Z,1021.91
2019-04-19T01:41:00.340Z,1021.89
2019-04-19T01:41:53.751Z,1021.92
2019-04-19T01:42:56.516Z,1021.91
2019-04-19T01:44:54.741Z,1021.95
2019-04-19T01:45:53.502Z,1021.95
2019-04-19T01:46:53.753Z,1021.90
2019-04-19T01:47:56.543Z,1021.96
2019-04-19T01:48:52.718Z,1021.93
2019-04-19T01:49:52.649Z,1021.94
2019-04-19T01:50:56.233Z,1021.94
2019-04-19T01:51:51.610Z,1021.94
2019-04-19T01:52:58.096Z,1021.92
2019-04-19T01:53:56.390Z,1021.93
2019-04-19T01:54:51.939Z,1021.95
2019-04-19T01:55:40.459Z,1021.97
2019-04-19T01:56:45.552Z,1021.97
2019-04-19T01:57:38.827Z,1021.97
2019-04-19T01:58:44.678Z,1021.98
2019-04-19T01:59:45.222Z,1021.97
2019-04-19T02:00:44.891Z,1021.94
2019-04-19T02:01:39.536Z,1021.93
2019-04-19T02:02:43.745Z,1021.92
2019-04-19T02:03:44.548Z,1021.94
2019-04-19T02:05:45.999Z,1021.92
2019-04-19T02:06:43.000Z,1021.92
2019-04-19T02:07:39.008Z,1021.90
2019-04-19T02:08:45.264Z,1021.92
2019-04-19T02:09:54.340Z,1021.88
2019-04-19T02:10:51.859Z,1021.91
2019-04-19T02:11:46.594Z,1021.92
2019-04-19T02:12:46.876Z,1021.89
2019-04-19T02:13:51.090Z,1021.91
2019-04-19T02:15:45.240Z,1021.92
2019-04-19T02:16:39.030Z,1021.92
2019-04-19T02:17:43.707Z,1021.91
2019-04-19T02:19:47.502Z,1021.93
2019-04-19T02:21:42.414Z,1021.98
2019-04-19T02:22:40.867Z,1021.95
2019-04-19T02:23:44.645Z,1021.91
2019-04-19T02:24:45.075Z,1021.96
2019-04-19T02:25:39.339Z,1021.91
2019-04-19T02:26:46.354Z,1021.94
2019-04-19T02:27:44.100Z,1021.98
2019-04-19T02:28:42.567Z,1022.00
2019-04-19T02:29:43.751Z,1022.01
2019-04-19T02:30:54.763Z,1022.02
2019-04-19T02:32:07.684Z,1022.03
2019-04-19T02:33:01.261Z,1022.06
2019-04-19T02:35:09.919Z,1022.12
2019-04-19T02:36:08.253Z,1022.15
2019-04-19T02:37:18.700Z,1022.14
2019-04-19T02:38:04.125Z,1022.16
2019-04-19T02:39:17.829Z,1022.17
2019-04-19T02:40:19.116Z,1022.15
2019-04-19T02:41:13.988Z,1022.18
2019-04-19T02:42:21.385Z,1022.19
2019-04-19T02:43:07.263Z,1022.20
2019-04-19T02:44:04.089Z,1022.19
2019-04-19T02:45:45.462Z,1022.23
2019-04-19T02:48:10.901Z,1022.22
2019-04-19T02:49:15.247Z,1022.26
2019-04-19T02:50:11.343Z,1022.26
2019-04-19T02:51:21.976Z,1022.22
2019-04-19T02:52:11.414Z,1022.25
2019-04-19T02:53:08.775Z,1022.25
2019-04-19T02:54:10.406Z,1022.25
2019-04-19T02:57:10.132Z,1022.23
2019-04-19T02:59:09.531Z,1022.29
2019-04-19T03:00:15.872Z,1022.26
2019-04-19T03:01:13.194Z,1022.28
2019-04-19T03:03:06.109Z,1022.28
2019-04-19T03:04:24.516Z,1022.25
2019-04-19T03:05:10.669Z,1022.28
2019-04-19T03:05:59.754Z,1022.30
2019-04-19T03:06:48.258Z,1022.27
2019-04-19T03:07:40.724Z,1022.27
2019-04-19T03:08:41.904Z,1022.29
2019-04-19T03:09:43.633Z,1022.29
2019-04-19T03:10:54.251Z,1022.30
2019-04-19T03:11:56.303Z,1022.31
2019-04-19T03:12:59.509Z,1022.33
2019-04-19T03:14:01.695Z,1022.29
2019-04-19T03:14:56.485Z,1022.31
2019-04-19T03:15:54.426Z,1022.33
2019-04-19T03:17:00.878Z,1022.33
2019-04-19T03:17:57.505Z,1022.35
2019-04-19T03:18:53.294Z,1022.33
2019-04-19T03:20:54.132Z,1022.33
2019-04-19T03:21:58.322Z,1022.34
2019-04-19T03:23:01.059Z,1022.36
2019-04-19T03:23:56.579Z,1022.37
2019-04-19T03:25:03.585Z,1022.37
2019-04-19T03:25:51.265Z,1022.33
2019-04-19T03:26:48.142Z,1022.34
2019-04-19T03:27:52.171Z,1022.35
2019-04-19T03:28:48.487Z,1022.34
2019-04-19T03:29:45.293Z,1022.39
2019-04-19T03:31:08.203Z,1022.42
2019-04-19T03:32:26.111Z,1022.41
2019-04-19T03:33:11.311Z,1022.40
2019-04-19T03:34:11.305Z,1022.44
2019-04-19T03:35:59.554Z,1022.44
2019-04-19T03:36:55.051Z,1022.41
2019-04-19T03:38:04.892Z,1022.45
2019-04-19T03:39:08.835Z,1022.43
2019-04-19T03:40:11.119Z,1022.43
2019-04-19T03:41:06.796Z,1022.42
2019-04-19T03:42:57.050Z,1022.41
2019-04-19T03:43:57.232Z,1022.46
2019-04-19T03:45:04.333Z,1022.44
2019-04-19T03:46:05.134Z,1022.45
2019-04-19T03:47:04.861Z,1022.47
2019-04-19T03:48:05.199Z,1022.49
2019-04-19T03:48:56.217Z,1022.47
2019-04-19T03:50:04.522Z,1022.50
2019-04-19T03:51:04.921Z,1022.52
2019-04-19T03:53:03.268Z,1022.49
2019-04-19T03:54:00.424Z,1022.51
2019-04-19T03:54:56.065Z,1022.50
2019-04-19T03:56:06.480Z,1022.53
2019-04-19T03:57:00.698Z,1022.50
2019-04-19T03:57:52.351Z,1022.50
2019-04-19T03:58:42.366Z,1022.51
2019-04-19T03:59:43.406Z,1022.50
2019-04-19T04:00:42.938Z,1022.50
2019-04-19T04:01:49.425Z,1022.51
2019-04-19T04:02:45.902Z,1022.53
2019-04-19T04:03:46.119Z,1022.50
2019-04-19T04:04:50.087Z,1022.55
2019-04-19T04:05:48.233Z,1022.56
2019-04-19T04:06:44.339Z,1022.58
2019-04-19T04:07:45.471Z,1022.61
2019-04-19T04:08:48.576Z,1022.64
2019-04-19T04:09:47.523Z,1022.61
2019-04-19T04:10:45.556Z,1022.62
2019-04-19T04:11:55.240Z,1022.62
2019-04-19T04:12:54.674Z,1022.61
2019-04-19T04:14:56.790Z,1022.66
2019-04-19T04:15:56.932Z,1022.67
2019-04-19T04:17:43.599Z,1022.63
2019-04-19T04:18:43.010Z,1022.65
2019-04-19T04:19:44.101Z,1022.60
2019-04-19T04:20:48.979Z,1022.64
2019-04-19T04:21:47.717Z,1022.64
2019-04-19T04:22:45.508Z,1022.65
2019-04-19T04:23:47.431Z,1022.66
2019-04-19T04:24:55.469Z,1022.67
2019-04-19T04:25:55.173Z,1022.65
2019-04-19T04:26:55.013Z,1022.65
2019-04-19T04:27:53.143Z,1022.67
2019-04-19T04:28:56.854Z,1022.66
2019-04-19T04:29:52.392Z,1022.68
2019-04-19T04:30:57.184Z,1022.64
2019-04-19T04:31:56.843Z,1022.65
2019-04-19T04:32:57.001Z,1022.67
2019-04-19T04:33:54.614Z,1022.67
2019-04-19T04:34:52.026Z,1022.74
2019-04-19T04:35:58.639Z,1022.71
2019-04-19T04:36:57.889Z,1022.74
2019-04-19T04:37:57.410Z,1022.77
2019-04-19T04:38:46.201Z,1022.77
2019-04-19T04:39:43.633Z,1022.80
2019-04-19T04:40:44.423Z,1022.76
2019-04-19T04:41:45.964Z,1022.78
2019-04-19T04:42:58.692Z,1022.79
2019-04-19T04:44:07.116Z,1022.77
2019-04-19T04:45:10.430Z,1022.76
2019-04-19T04:46:11.142Z,1022.80
2019-04-19T04:47:02.073Z,1022.81
2019-04-19T04:48:02.684Z,1022.83
2019-04-19T04:49:04.787Z,1022.85
2019-04-19T04:50:09.627Z,1022.81
2019-04-19T04:51:05.806Z,1022.87
2019-04-19T04:51:54.777Z,1022.87
2019-04-19T04:52:47.387Z,1022.85
2019-04-19T04:53:44.897Z,1022.86
2019-04-19T04:54:45.596Z,1022.87
2019-04-19T04:55:51.779Z,1022.86
2019-04-19T04:56:56.182Z,1022.86
2019-04-19T04:57:51.093Z,1022.90
2019-04-19T04:58:47.401Z,1022.91
2019-04-19T04:59:49.083Z,1022.92
2019-04-19T05:00:53.219Z,1022.92
2019-04-19T05:01:54.939Z,1022.93
2019-04-19T05:04:01.920Z,1022.96
2019-04-19T05:05:05.626Z,1022.94
2019-04-19T05:06:06.462Z,1023.01
2019-04-19T05:07:03.508Z,1022.98
2019-04-19T05:08:03.056Z,1022.99
2019-04-19T05:08:58.832Z,1023.03
2019-04-19T05:10:04.646Z,1022.99
2019-04-19T05:11:06.494Z,1023.05
2019-04-19T05:12:07.654Z,1023.05
2019-04-19T05:13:18.181Z,1023.06
2019-04-19T05:14:56.037Z,1023.08
2019-04-19T05:17:24.567Z,1023.05
2019-04-19T05:18:12.598Z,1023.06
2019-04-19T05:18:58.059Z,1023.09
2019-04-19T05:20:06.705Z,1023.09
2019-04-19T05:20:56.011Z,1023.15
2019-04-19T05:22:05.575Z,1023.14
2019-04-19T05:23:02.759Z,1023.18
2019-04-19T05:24:05.470Z,1023.16
2019-04-19T05:25:12.546Z,1023.19
2019-04-19T05:26:18.381Z,1023.23
2019-04-19T05:27:11.673Z,1023.21
2019-04-19T05:28:05.560Z,1023.24
2019-04-19T05:29:00.664Z,1023.23
2019-04-19T05:29:50.846Z,1023.24
2019-04-19T05:30:55.117Z,1023.26
2019-04-19T05:31:49.817Z,1023.30
2019-04-19T05:33:00.382Z,1023.31
2019-04-19T05:34:08.149Z,1023.30
2019-04-19T05:35:00.559Z,1023.31
2019-04-19T05:36:04.639Z,1023.31
2019-04-19T05:37:06.924Z,1023.30
2019-04-19T05:38:03.537Z,1023.36
2019-04-19T05:39:08.041Z,1023.33
2019-04-19T05:40:08.101Z,1023.34
2019-04-19T05:40:56.258Z,1023.37
2019-04-19T05:44:19.687Z,1023.35
2019-04-19T05:45:23.786Z,1023.37
2019-04-19T05:46:09.018Z,1023.36
2019-04-19T05:47:06.187Z,1023.38
2019-04-19T05:47:55.799Z,1023.39
2019-04-19T05:49:04.099Z,1023.38
2019-04-19T05:50:12.251Z,1023.40
2019-04-19T05:51:14.454Z,1023.42
2019-04-19T05:52:10.388Z,1023.42
2019-04-19T05:53:00.086Z,1023.41
2019-04-19T05:53:51.312Z,1023.41
2019-04-19T05:54:47.106Z,1023.40
2019-04-19T05:55:46.061Z,1023.40
2019-04-19T05:56:53.070Z,1023.42
2019-04-19T05:58:03.374Z,1023.43
2019-04-19T05:58:57.985Z,1023.46
2019-04-19T05:59:54.710Z,1023.40
2019-04-19T06:00:59.548Z,1023.45
2019-04-19T06:01:59.268Z,1023.46
2019-04-19T06:02:58.536Z,1023.43
2019-04-19T06:04:07.649Z,1023.45
2019-04-19T06:05:11.396Z,1023.47
2019-04-19T06:06:14.085Z,1023.45
2019-04-19T06:06:56.543Z,1023.43
2019-04-19T06:08:00.687Z,1023.47
2019-04-19T06:08:47.609Z,1023.47
2019-04-19T06:09:47.572Z,1023.48
2019-04-19T06:10:53.609Z,1023.51
2019-04-19T06:11:47.968Z,1023.50
2019-04-19T06:12:49.543Z,1023.52
2019-04-19T06:13:56.036Z,1023.50
2019-04-19T06:15:12.202Z,1023.52
2019-04-19T06:16:05.696Z,1023.49
2019-04-19T06:16:58.064Z,1023.50
2019-04-19T06:18:08.300Z,1023.51
2019-04-19T06:19:08.946Z,1023.50
2019-04-19T06:20:04.497Z,1023.51
2019-04-19T06:21:10.624Z,1023.48
2019-04-19T06:22:01.028Z,1023.50
2019-04-19T06:23:07.436Z,1023.51
2019-04-19T06:24:05.932Z,1023.51
2019-04-19T06:25:02.345Z,1023.50
2019-04-19T06:26:35.170Z,1023.55
2019-04-19T06:27:13.096Z,1023.53
2019-04-19T06:28:16.504Z,1023.58
2019-04-19T06:29:25.655Z,1023.55
2019-04-19T06:30:10.677Z,1023.56
2019-04-19T06:31:14.056Z,1023.54
2019-04-19T06:32:11.395Z,1023.56
2019-04-19T06:33:07.833Z,1023.56
2019-04-19T06:34:13.004Z,1023.53
2019-04-19T06:35:53.686Z,1023.59
2019-04-19T06:36:58.667Z,1023.56
2019-04-19T06:37:48.133Z,1023.56
2019-04-19T06:38:48.609Z,1023.59
2019-04-19T06:39:53.607Z,1023.59
2019-04-19T06:40:53.558Z,1023.59
2019-04-19T06:41:55.746Z,1023.57
2019-04-19T06:44:00.582Z,1023.59
2019-04-19T06:45:07.389Z,1023.65
2019-04-19T06:46:02.620Z,1023.63
2019-04-19T06:47:00.618Z,1023.61
2019-04-19T06:47:54.874Z,1023.64
2019-04-19T06:49:50.914Z,1023.63
2019-04-19T06:50:52.878Z,1023.64
2019-04-19T06:51:57.640Z,1023.67
2019-04-19T06:52:48.949Z,1023.65
2019-04-19T06:53:54.955Z,1023.65
2019-04-19T06:54:49.695Z,1023.68
2019-04-19T06:55:52.633Z,1023.70
2019-04-19T06:57:58.960Z,1023.68
2019-04-19T06:58:57.821Z,1023.69
2019-04-19T07:00:02.738Z,1023.69
2019-04-19T07:01:00.659Z,1023.69
2019-04-19T07:01:52.761Z,1023.69
2019-04-19T07:03:49.398Z,1023.70
2019-04-19T07:05:03.461Z,1023.72
2019-04-19T07:06:06.062Z,1023.69
2019-04-19T07:07:13.326Z,1023.72
2019-04-19T07:08:18.211Z,1023.72
2019-04-19T07:10:16.760Z,1023.74
2019-04-19T07:11:11.315Z,1023.71
2019-04-19T07:12:14.326Z,1023.76
2019-04-19T07:13:04.422Z,1023.76
2019-04-19T07:13:58.446Z,1023.78
2019-04-19T07:15:13.879Z,1023.78
2019-04-19T07:17:06.188Z,1023.82
2019-04-19T07:18:02.398Z,1023.77
2019-04-19T07:19:04.990Z,1023.76
2019-04-19T07:20:03.390Z,1023.76
2019-04-19T07:21:12.388Z,1023.75
2019-04-19T07:23:03.009Z,1023.70
2019-04-19T07:24:20.456Z,1023.67
2019-04-19T07:25:16.617Z,1023.70
2019-04-19T07:26:10.209Z,1023.71
2019-04-19T07:27:05.818Z,1023.68
2019-04-19T07:27:59.605Z,1023.70
2019-04-19T07:28:49.475Z,1023.71
2019-04-19T07:29:50.724Z,1023.69
2019-04-19T07:30:56.047Z,1023.65
2019-04-19T07:32:55.618Z,1023.69
2019-04-19T07:34:03.567Z,1023.72
2019-04-19T07:35:03.591Z,1023.72
2019-04-19T07:36:22.685Z,1023.71
2019-04-19T07:37:11.900Z,1023.75
2019-04-19T07:38:19.507Z,1023.71
2019-04-19T07:40:13.530Z,1023.75
2019-04-19T07:41:09.955Z,1023.76
2019-04-19T07:42:12.396Z,1023.73
2019-04-19T07:43:05.455Z,1023.75
2019-04-19T07:44:02.971Z,1023.76
2019-04-19T07:44:55.915Z,1023.78
2019-04-19T07:46:12.353Z,1023.77
2019-04-19T07:47:58.537Z,1023.77
2019-04-19T07:48:49.717Z,1023.78
2019-04-19T07:49:59.258Z,1023.79
2019-04-19T07:50:55.837Z,1023.76
2019-04-19T07:52:01.862Z,1023.80
2019-04-19T07:53:52.883Z,1023.81
2019-04-19T07:54:55.223Z,1023.80
2019-04-19T07:56:00.459Z,1023.81
2019-04-19T07:57:07.729Z,1023.80
2019-04-19T08:00:23.273Z,1023.84
2019-04-19T08:01:18.938Z,1023.86
2019-04-19T08:02:16.978Z,1023.83
2019-04-19T08:03:18.818Z,1023.86
2019-04-19T08:07:45.385Z,1023.83
2019-04-19T08:09:20.375Z,1023.83
2019-04-19T08:12:18.653Z,1023.87
2019-04-19T08:13:31.601Z,1023.87
2019-04-19T08:14:22.656Z,1023.87
2019-04-19T08:17:35.346Z,1023.86
2019-04-19T08:18:31.790Z,1023.88
2019-04-19T08:28:07.196Z,1023.95
2019-04-19T08:29:07.174Z,1023.99
2019-04-19T08:29:59.204Z,1023.94
2019-04-19T08:30:56.777Z,1023.95
2019-04-19T08:31:51.317Z,1023.93
2019-04-19T08:32:51.329Z,1023.89
2019-04-19T08:33:51.253Z,1023.98
2019-04-19T08:34:57.691Z,1023.93
2019-04-19T08:35:53.827Z,1023.94
2019-04-19T08:36:55.357Z,1023.92
2019-04-19T08:37:52.158Z,1023.93
2019-04-19T08:39:13.999Z,1023.94
2019-04-19T08:40:08.636Z,1023.94
2019-04-19T08:41:05.928Z,1023.92
2019-04-19T08:42:10.690Z,1023.93
2019-04-19T08:43:12.759Z,1023.92
2019-04-19T08:44:10.192Z,1023.92
2019-04-19T08:44:59.610Z,1023.95
2019-04-19T08:46:51.686Z,1023.90
2019-04-19T08:48:00.194Z,1023.89
2019-04-19T08:48:56.356Z,1023.89
2019-04-19T08:49:53.361Z,1023.92
2019-04-19T08:50:55.009Z,1023.90
2019-04-19T08:51:51.861Z,1023.88
2019-04-19T08:52:59.209Z,1023.89
2019-04-19T08:54:10.855Z,1023.89
2019-04-19T08:56:10.278Z,1023.86
2019-04-19T08:57:01.092Z,1023.88
2019-04-19T08:57:58.180Z,1023.85
2019-04-19T08:59:15.570Z,1023.88
2019-04-19T09:00:18.751Z,1023.88
2019-04-19T09:01:15.206Z,1023.89
2019-04-19T09:02:11.186Z,1023.84
2019-04-19T09:03:03.928Z,1023.84
2019-04-19T09:05:10.571Z,1023.81
2019-04-19T09:06:42.540Z,1023.81
2019-04-19T09:08:10.684Z,1023.76
2019-04-19T09:09:08.275Z,1023.78
2019-04-19T09:11:14.928Z,1023.77
2019-04-19T09:13:29.605Z,1023.76
2019-04-19T09:14:12.315Z,1023.74
2019-04-19T09:15:12.832Z,1023.77
2019-04-19T09:16:12.459Z,1023.74
2019-04-19T09:17:16.412Z,1023.73
2019-04-19T09:19:19.605Z,1023.73
2019-04-19T09:20:15.649Z,1023.72
2019-04-19T09:21:10.559Z,1023.72
2019-04-19T09:22:15.606Z,1023.67
2019-04-19T09:23:09.447Z,1023.70
2019-04-19T09:24:00.125Z,1023.70
2019-04-19T09:25:02.986Z,1023.70
2019-04-19T09:26:05.771Z,1023.71
2019-04-19T09:27:10.138Z,1023.72
2019-04-19T09:28:16.176Z,1023.74
2019-04-19T09:30:13.617Z,1023.69
2019-04-19T09:31:09.572Z,1023.70
2019-04-19T09:32:02.721Z,1023.72
2019-04-19T09:34:01.723Z,1023.70
2019-04-19T09:35:01.511Z,1023.71
2019-04-19T09:36:02.101Z,1023.71
2019-04-19T09:37:03.703Z,1023.68
2019-04-19T09:38:05.019Z,1023.72
2019-04-19T09:39:10.488Z,1023.69
2019-04-19T09:40:03.047Z,1023.70
2019-04-19T09:41:00.843Z,1023.67
2019-04-19T09:42:00.791Z,1023.65
2019-04-19T09:43:04.285Z,1023.66
2019-04-19T09:44:03.444Z,1023.68
2019-04-19T09:45:53.668Z,1023.64
2019-04-19T09:46:54.968Z,1023.61
2019-04-19T09:47:54.467Z,1023.64
2019-04-19T09:49:09.866Z,1023.64
2019-04-19T09:50:08.561Z,1023.63
2019-04-19T09:51:07.597Z,1023.61
2019-04-19T09:52:15.922Z,1023.65
2019-04-19T09:53:21.399Z,1023.61
2019-04-19T09:54:13.710Z,1023.64
2019-04-19T09:55:15.543Z,1023.62
2019-04-19T09:56:12.284Z,1023.60
2019-04-19T09:57:11.201Z,1023.59
2019-04-19T09:58:13.992Z,1023.57
2019-04-19T09:59:05.981Z,1023.57
2019-04-19T10:00:02.237Z,1023.61
2019-04-19T10:00:55.811Z,1023.57
2019-04-19T10:01:58.901Z,1023.57
2019-04-19T10:03:00.172Z,1023.53
2019-04-19T10:03:59.151Z,1023.56
2019-04-19T10:04:54.864Z,1023.54
2019-04-19T10:05:56.838Z,1023.57
2019-04-19T10:06:54.382Z,1023.57
2019-04-19T10:07:55.271Z,1023.56
2019-04-19T10:08:54.395Z,1023.53
2019-04-19T10:10:02.801Z,1023.53
2019-04-19T10:10:54.746Z,1023.53
2019-04-19T10:11:57.472Z,1023.57
2019-04-19T10:12:55.901Z,1023.55
2019-04-19T10:13:55.818Z,1023.57
2019-04-19T10:14:55.639Z,1023.52
2019-04-19T10:15:54.633Z,1023.46
2019-04-19T10:16:54.861Z,1023.51
2019-04-19T10:17:54.751Z,1023.51
2019-04-19T10:18:59.826Z,1023.57
2019-04-19T10:19:55.078Z,1023.54
2019-04-19T10:20:54.811Z,1023.52
2019-04-19T10:21:56.385Z,1023.52
2019-04-19T10:22:55.241Z,1023.51
2019-04-19T10:23:56.041Z,1023.54
2019-04-19T10:24:54.949Z,1023.51
2019-04-19T10:25:59.197Z,1023.53
2019-04-19T10:26:55.034Z,1023.53
2019-04-19T10:27:55.759Z,1023.49
2019-04-19T10:28:56.233Z,1023.45
2019-04-19T10:29:55.474Z,1023.45
2019-04-19T10:30:55.241Z,1023.51
2019-04-19T10:32:56.236Z,1023.51
2019-04-19T10:33:58.615Z,1023.54
2019-04-19T10:34:55.336Z,1023.52
2019-04-19T10:35:55.925Z,1023.51
2019-04-19T10:37:55.669Z,1023.54
2019-04-19T10:38:57.681Z,1023.48
2019-04-19T10:39:55.453Z,1023.51
2019-04-19T10:40:55.835Z,1023.50
2019-04-19T10:41:56.478Z,1023.48
2019-04-19T10:44:04.264Z,1023.53
2019-04-19T10:44:56.303Z,1023.55
2019-04-19T10:46:56.618Z,1023.53
2019-04-19T10:47:55.847Z,1023.54
2019-04-19T10:49:04.339Z,1023.58
2019-04-19T10:50:10.939Z,1023.49
2019-04-19T10:50:55.827Z,1023.50
2019-04-19T10:51:56.567Z,1023.51
2019-04-19T10:52:56.461Z,1023.47
2019-04-19T10:53:56.678Z,1023.48
2019-04-19T10:54:57.192Z,1023.47
2019-04-19T10:55:56.207Z,1023.43
2019-04-19T10:56:56.472Z,1023.47
2019-04-19T10:57:56.955Z,1023.45
2019-04-19T10:58:56.648Z,1023.43
2019-04-19T10:59:56.659Z,1023.47
2019-04-19T11:00:57.478Z,1023.41
2019-04-19T11:01:56.211Z,1023.45
2019-04-19T11:02:56.958Z,1023.43
2019-04-19T11:03:57.043Z,1023.42
2019-04-19T11:04:56.532Z,1023.41
2019-04-19T11:06:57.725Z,1023.42
2019-04-19T11:07:56.414Z,1023.40
2019-04-19T11:08:56.448Z,1023.38
2019-04-19T11:09:57.757Z,1023.35
2019-04-19T11:10:57.816Z,1023.36
2019-04-19T11:11:57.493Z,1023.34
2019-04-19T11:12:56.640Z,1023.33
2019-04-19T11:13:56.615Z,1023.32
2019-04-19T11:14:57.881Z,1023.31
2019-04-19T11:15:56.688Z,1023.37
2019-04-19T11:16:57.707Z,1023.32
2019-04-19T11:17:56.802Z,1023.36
2019-04-19T11:19:10.181Z,1023.35
2019-04-19T11:20:10.970Z,1023.35
2019-04-19T11:20:58.978Z,1023.36
2019-04-19T11:21:56.941Z,1023.34
2019-04-19T11:22:57.607Z,1023.32
2019-04-19T11:23:57.833Z,1023.29
2019-04-19T11:24:57.017Z,1023.29
2019-04-19T11:25:57.040Z,1023.28
2019-04-19T11:26:57.179Z,1023.29
2019-04-19T11:27:57.962Z,1023.26
2019-04-19T11:28:57.129Z,1023.31
2019-04-19T11:29:58.461Z,1023.31
2019-04-19T11:30:57.206Z,1023.30
2019-04-19T11:31:57.566Z,1023.29
2019-04-19T11:32:57.272Z,1023.26
2019-04-19T11:33:57.303Z,1023.27
2019-04-19T11:34:57.399Z,1023.26
2019-04-19T11:35:57.623Z,1023.21
2019-04-19T11:36:57.867Z,1023.23
2019-04-19T11:37:57.496Z,1023.21
2019-04-19T11:38:58.777Z,1023.20
2019-04-19T11:39:57.566Z,1023.23
2019-04-19T11:40:57.647Z,1023.18
2019-04-19T11:41:57.583Z,1023.24
2019-04-19T11:42:57.974Z,1023.23
2019-04-19T11:43:57.906Z,1023.22
2019-04-19T11:44:57.732Z,1023.23
2019-04-19T11:45:58.026Z,1023.20
2019-04-19T11:46:58.304Z,1023.20
2019-04-19T11:47:58.872Z,1023.19
2019-04-19T11:48:58.176Z,1023.18
2019-04-19T11:49:57.857Z,1023.18
2019-04-19T11:50:58.030Z,1023.20
2019-04-19T11:51:58.708Z,1023.13
2019-04-19T11:52:57.964Z,1023.16
2019-04-19T11:54:58.080Z,1023.13
2019-04-19T11:55:58.351Z,1023.13
2019-04-19T11:57:02.741Z,1023.11
2019-04-19T11:57:58.750Z,1023.14
2019-04-19T11:58:58.352Z,1023.13
2019-04-19T11:59:59.382Z,1023.18
2019-04-19T12:00:58.604Z,1023.16
2019-04-19T12:01:59.821Z,1023.13
2019-04-19T12:02:58.318Z,1023.20
2019-04-19T12:03:58.589Z,1023.20
2019-04-19T12:04:58.429Z,1023.16
2019-04-19T12:05:58.414Z,1023.11
2019-04-19T12:07:58.510Z,1023.02
2019-04-19T12:08:58.934Z,1023.01
2019-04-19T12:09:58.661Z,1023.05
2019-04-19T12:10:59.786Z,1023.01
2019-04-19T12:11:58.669Z,1023.08
2019-04-19T12:13:58.703Z,1023.04
2019-04-19T12:14:59.857Z,1023.11
2019-04-19T12:15:59.031Z,1023.16
2019-04-19T12:16:59.296Z,1023.11
2019-04-19T12:17:59.949Z,1023.11
2019-04-19T12:20:02.797Z,1023.07
2019-04-19T12:20:58.982Z,1023.13
2019-04-19T12:21:59.429Z,1023.11
2019-04-19T12:22:59.994Z,1023.12
2019-04-19T12:24:00.313Z,1023.13
2019-04-19T12:25:59.741Z,1023.12
2019-04-19T12:26:59.847Z,1023.12
2019-04-19T12:27:59.677Z,1023.10
2019-04-19T12:29:01.320Z,1023.13
2019-04-19T12:30:00.407Z,1023.12
2019-04-19T12:30:59.343Z,1023.08
2019-04-19T12:31:59.358Z,1023.10
2019-04-19T12:33:59.657Z,1023.11
2019-04-19T12:35:00.432Z,1023.08
2019-04-19T12:36:59.534Z,1023.13
2019-04-19T12:37:59.908Z,1023.10
2019-04-19T12:39:00.906Z,1023.14
2019-04-19T12:40:59.684Z,1023.09
2019-04-19T12:42:00.037Z,1023.08
2019-04-19T12:43:00.133Z,1023.14
2019-04-19T12:43:59.729Z,1023.10
2019-04-19T12:44:59.852Z,1023.12
2019-04-19T12:46:00.978Z,1023.09
2019-04-19T12:46:59.835Z,1023.07
2019-04-19T12:48:00.911Z,1023.11
2019-04-19T12:51:00.355Z,1023.06
2019-04-19T12:52:00.076Z,1023.02
2019-04-19T12:53:00.131Z,1023.07
2019-04-19T12:54:00.361Z,1023.02
2019-04-19T12:55:01.692Z,1023.01
2019-04-19T12:56:00.201Z,1022.99
2019-04-19T12:57:00.198Z,1022.98
2019-04-19T12:59:00.307Z,1022.97
2019-04-19T13:00:00.337Z,1022.97
2019-04-19T13:01:01.694Z,1022.92
2019-04-19T13:02:00.357Z,1022.95
2019-04-19T13:03:00.542Z,1022.91
2019-04-19T13:04:00.479Z,1022.93
2019-04-19T13:05:00.514Z,1022.94
2019-04-19T13:06:01.682Z,1022.90
2019-04-19T13:07:00.586Z,1022.90
2019-04-19T13:08:00.989Z,1022.88
2019-04-19T13:09:01.315Z,1022.89
2019-04-19T13:11:00.902Z,1022.92
2019-04-19T13:12:01.103Z,1022.91
2019-04-19T13:13:00.794Z,1022.88
2019-04-19T13:14:01.810Z,1022.84
2019-04-19T13:15:01.979Z,1022.85
2019-04-19T13:16:00.903Z,1022.85
2019-04-19T13:17:02.105Z,1022.85
2019-04-19T13:18:02.303Z,1022.80
2019-04-19T13:19:01.018Z,1022.83
2019-04-19T13:20:10.104Z,1022.82
2019-04-19T13:21:01.953Z,1022.85
2019-04-19T13:22:01.152Z,1022.83
2019-04-19T13:23:02.208Z,1022.79
2019-04-19T13:24:02.440Z,1022.80
2019-04-19T13:25:01.652Z,1022.79
2019-04-19T13:27:01.479Z,1022.81
2019-04-19T13:28:02.857Z,1022.82
2019-04-19T13:29:01.734Z,1022.73
2019-04-19T13:30:12.092Z,1022.85
2019-04-19T13:31:02.653Z,1022.82
2019-04-19T13:32:01.870Z,1022.78
2019-04-19T13:33:02.634Z,1022.79
2019-04-19T13:34:02.797Z,1022.77
2019-04-19T13:35:01.624Z,1022.71
2019-04-19T13:36:01.624Z,1022.73
2019-04-19T13:37:02.843Z,1022.69
2019-04-19T13:38:01.726Z,1022.70
2019-04-19T13:39:01.767Z,1022.74
2019-04-19T13:40:02.087Z,1022.72
2019-04-19T13:41:02.872Z,1022.74